sensor_id;sensor_type;location;lat;lon;timestamp;temperature;humidity
10964;DHT22;5534;48.784;9.190;2023-11-19T00:02:21;10.60;99.90
10964;DHT22;5534;48.784;9.190;2023-11-19T00:04:47;10.70;99.90
10964;DHT22;5534;48.784;9.190;2023-11-19T00:07:13;10.80;99.90
10964;DHT22;5534;48.784;9.190;2023-11-19T00:09:40;10.80;99.90
10964;DHT22;5534;48.784;9.190;2023-11-19T00:12:06;10.70;99.90
10964;DHT22;5534;48.784;9.190;2023-11-19T00:14:33;10.70;99.90
10964;DHT22;5534;48.784;9.190;2023-11-19T00:17:00;10.70;99.90
10964;DHT22;5534;48.784;9.190;2023-11-19T00:19:26;10.70;99.90
10964;DHT22;5534;48.784;9.190;2023-11-19T00:21:52;10.70;99.90
10964;DHT22;5534;48.784;9.190;2023-11-19T00:24:18;10.80;99.90
10964;DHT22;5534;48.784;9.190;2023-11-19T00:26:44;10.70;99.90
10964;DHT22;5534;48.784;9.190;2023-11-19T00:29:10;10.70;99.90
10964;DHT22;5534;48.784;9.190;2023-11-19T00:31:36;10.70;99.90
10964;DHT22;5534;48.784;9.190;2023-11-19T00:34:02;10.70;99.90
10964;DHT22;5534;48.784;9.190;2023-11-19T00:36:28;10.80;99.90
10964;DHT22;5534;48.784;9.190;2023-11-19T00:38:54;10.70;99.90
10964;DHT22;5534;48.784;9.190;2023-11-19T00:41:20;10.50;99.90
10964;DHT22;5534;48.784;9.190;2023-11-19T00:43:46;10.60;99.90
10964;DHT22;5534;48.784;9.190;2023-11-19T00:46:12;10.70;99.90
10964;DHT22;5534;48.784;9.190;2023-11-19T00:48:39;10.80;99.90
10964;DHT22;5534;48.784;9.190;2023-11-19T00:51:05;10.90;99.90
10964;DHT22;5534;48.784;9.190;2023-11-19T00:53:31;10.90;99.90
10964;DHT22;5534;48.784;9.190;2023-11-19T00:55:57;10.90;99.90
10964;DHT22;5534;48.784;9.190;2023-11-19T00:58:23;11.00;99.90
10964;DHT22;5534;48.784;9.190;2023-11-19T01:00:49;10.90;99.90
10964;DHT22;5534;48.784;9.190;2023-11-19T01:03:15;10.50;99.90
10964;DHT22;5534;48.784;9.190;2023-11-19T01:05:44;10.90;99.90
10964;DHT22;5534;48.784;9.190;2023-11-19T01:08:12;10.90;99.90
10964;DHT22;5534;48.784;9.190;2023-11-19T01:10:38;10.90;99.90
10964;DHT22;5534;48.784;9.190;2023-11-19T01:13:03;10.90;99.90
10964;DHT22;5534;48.784;9.190;2023-11-19T01:15:32;11.10;99.90
10964;DHT22;5534;48.784;9.190;2023-11-19T01:17:57;11.00;99.90
10964;DHT22;5534;48.784;9.190;2023-11-19T01:20:23;11.10;99.90
10964;DHT22;5534;48.784;9.190;2023-11-19T01:22:49;11.00;99.90
10964;DHT22;5534;48.784;9.190;2023-11-19T01:25:15;11.00;99.90
10964;DHT22;5534;48.784;9.190;2023-11-19T01:27:41;10.90;99.90
10964;DHT22;5534;48.784;9.190;2023-11-19T01:30:08;11.00;99.90
10964;DHT22;5534;48.784;9.190;2023-11-19T01:32:40;11.00;99.90
10964;DHT22;5534;48.784;9.190;2023-11-19T01:35:06;10.90;99.90
10964;DHT22;5534;48.784;9.190;2023-11-19T01:37:40;11.00;99.90
10964;DHT22;5534;48.784;9.190;2023-11-19T01:40:06;11.00;99.90
10964;DHT22;5534;48.784;9.190;2023-11-19T01:42:40;11.10;99.90
10964;DHT22;5534;48.784;9.190;2023-11-19T01:45:07;11.10;99.90
10964;DHT22;5534;48.784;9.190;2023-11-19T01:47:35;11.10;99.90
10964;DHT22;5534;48.784;9.190;2023-11-19T01:50:04;11.10;99.90
10964;DHT22;5534;48.784;9.190;2023-11-19T01:52:34;11.00;99.90
10964;DHT22;5534;48.784;9.190;2023-11-19T01:55:00;11.10;99.90
10964;DHT22;5534;48.784;9.190;2023-11-19T01:57:26;11.20;99.90
10964;DHT22;5534;48.784;9.190;2023-11-19T01:59:52;11.20;99.90
10964;DHT22;5534;48.784;9.190;2023-11-19T02:02:19;11.20;99.90
10964;DHT22;5534;48.784;9.190;2023-11-19T02:04:49;11.10;99.90
10964;DHT22;5534;48.784;9.190;2023-11-19T02:07:16;11.00;99.90
10964;DHT22;5534;48.784;9.190;2023-11-19T02:09:43;11.00;99.90
10964;DHT22;5534;48.784;9.190;2023-11-19T02:12:10;11.10;99.90
10964;DHT22;5534;48.784;9.190;2023-11-19T02:14:37;11.20;99.90
10964;DHT22;5534;48.784;9.190;2023-11-19T02:17:03;11.20;99.90
10964;DHT22;5534;48.784;9.190;2023-11-19T02:19:29;11.20;99.90
10964;DHT22;5534;48.784;9.190;2023-11-19T02:21:55;11.20;99.90
10964;DHT22;5534;48.784;9.190;2023-11-19T02:24:22;11.30;99.90
10964;DHT22;5534;48.784;9.190;2023-11-19T02:27:14;11.30;99.90
10964;DHT22;5534;48.784;9.190;2023-11-19T02:29:41;11.30;99.90
10964;DHT22;5534;48.784;9.190;2023-11-19T02:32:08;11.20;99.90
10964;DHT22;5534;48.784;9.190;2023-11-19T02:34:34;11.20;99.90
10964;DHT22;5534;48.784;9.190;2023-11-19T02:37:01;11.20;99.90
10964;DHT22;5534;48.784;9.190;2023-11-19T02:39:26;11.20;99.90
10964;DHT22;5534;48.784;9.190;2023-11-19T02:41:52;11.20;99.90
10964;DHT22;5534;48.784;9.190;2023-11-19T02:44:18;11.30;99.90
10964;DHT22;5534;48.784;9.190;2023-11-19T02:46:44;11.30;99.90
10964;DHT22;5534;48.784;9.190;2023-11-19T02:49:10;11.40;99.90
10964;DHT22;5534;48.784;9.190;2023-11-19T02:51:35;11.40;99.90
10964;DHT22;5534;48.784;9.190;2023-11-19T02:54:02;11.40;99.90
10964;DHT22;5534;48.784;9.190;2023-11-19T02:56:32;11.30;99.90
10964;DHT22;5534;48.784;9.190;2023-11-19T02:59:02;11.20;99.90
10964;DHT22;5534;48.784;9.190;2023-11-19T03:01:40;11.20;99.90
10964;DHT22;5534;48.784;9.190;2023-11-19T03:04:09;11.30;99.90
10964;DHT22;5534;48.784;9.190;2023-11-19T03:06:37;11.30;99.90
10964;DHT22;5534;48.784;9.190;2023-11-19T03:09:03;11.30;99.90
10964;DHT22;5534;48.784;9.190;2023-11-19T03:11:35;11.30;99.90
10964;DHT22;5534;48.784;9.190;2023-11-19T03:14:01;11.40;99.90
10964;DHT22;5534;48.784;9.190;2023-11-19T03:16:28;11.40;99.90
10964;DHT22;5534;48.784;9.190;2023-11-19T03:18:54;11.40;99.90
10964;DHT22;5534;48.784;9.190;2023-11-19T03:21:30;11.40;99.90
10964;DHT22;5534;48.784;9.190;2023-11-19T03:24:00;11.50;99.90
10964;DHT22;5534;48.784;9.190;2023-11-19T03:26:27;11.50;99.90
10964;DHT22;5534;48.784;9.190;2023-11-19T03:28:53;11.40;99.90
10964;DHT22;5534;48.784;9.190;2023-11-19T03:31:19;11.50;99.90
10964;DHT22;5534;48.784;9.190;2023-11-19T03:33:46;11.50;99.90
10964;DHT22;5534;48.784;9.190;2023-11-19T03:36:12;11.50;99.90
10964;DHT22;5534;48.784;9.190;2023-11-19T03:38:38;11.40;99.90
10964;DHT22;5534;48.784;9.190;2023-11-19T03:41:11;11.40;99.90
10964;DHT22;5534;48.784;9.190;2023-11-19T03:43:38;11.20;99.90
10964;DHT22;5534;48.784;9.190;2023-11-19T03:46:15;11.10;99.90
10964;DHT22;5534;48.784;9.190;2023-11-19T03:48:40;11.00;99.90
10964;DHT22;5534;48.784;9.190;2023-11-19T03:51:06;10.80;99.90
10964;DHT22;5534;48.784;9.190;2023-11-19T03:53:32;11.00;99.90
10964;DHT22;5534;48.784;9.190;2023-11-19T03:55:57;11.10;99.90
10964;DHT22;5534;48.784;9.190;2023-11-19T03:58:24;11.20;99.90
10964;DHT22;5534;48.784;9.190;2023-11-19T04:00:50;11.20;99.90
10964;DHT22;5534;48.784;9.190;2023-11-19T04:03:15;11.10;99.90
10964;DHT22;5534;48.784;9.190;2023-11-19T04:05:41;11.20;99.90
10964;DHT22;5534;48.784;9.190;2023-11-19T04:08:07;11.10;99.90
10964;DHT22;5534;48.784;9.190;2023-11-19T04:10:33;11.20;99.90
10964;DHT22;5534;48.784;9.190;2023-11-19T04:12:58;11.20;99.90
10964;DHT22;5534;48.784;9.190;2023-11-19T04:15:24;11.20;99.90
10964;DHT22;5534;48.784;9.190;2023-11-19T04:17:50;11.40;99.90
10964;DHT22;5534;48.784;9.190;2023-11-19T04:20:15;11.40;99.90
10964;DHT22;5534;48.784;9.190;2023-11-19T04:22:41;11.40;99.90
10964;DHT22;5534;48.784;9.190;2023-11-19T04:25:07;11.60;99.90
10964;DHT22;5534;48.784;9.190;2023-11-19T04:27:35;11.50;99.90
10964;DHT22;5534;48.784;9.190;2023-11-19T04:30:00;11.50;99.90
10964;DHT22;5534;48.784;9.190;2023-11-19T04:32:28;11.50;99.90
10964;DHT22;5534;48.784;9.190;2023-11-19T04:34:54;11.70;99.90
10964;DHT22;5534;48.784;9.190;2023-11-19T04:37:20;11.70;99.90
10964;DHT22;5534;48.784;9.190;2023-11-19T04:39:45;11.80;99.90
10964;DHT22;5534;48.784;9.190;2023-11-19T04:42:14;11.90;99.90
10964;DHT22;5534;48.784;9.190;2023-11-19T04:44:43;11.90;99.90
10964;DHT22;5534;48.784;9.190;2023-11-19T04:47:09;12.00;99.90
10964;DHT22;5534;48.784;9.190;2023-11-19T04:49:40;12.00;99.90
10964;DHT22;5534;48.784;9.190;2023-11-19T04:52:08;11.90;99.90
10964;DHT22;5534;48.784;9.190;2023-11-19T04:54:34;12.00;99.90
10964;DHT22;5534;48.784;9.190;2023-11-19T04:56:59;12.00;99.90
10964;DHT22;5534;48.784;9.190;2023-11-19T04:59:25;11.90;99.90
10964;DHT22;5534;48.784;9.190;2023-11-19T05:01:53;12.00;99.90
10964;DHT22;5534;48.784;9.190;2023-11-19T05:04:18;12.10;99.90
10964;DHT22;5534;48.784;9.190;2023-11-19T05:06:44;12.10;99.90
10964;DHT22;5534;48.784;9.190;2023-11-19T05:09:10;12.20;99.90
10964;DHT22;5534;48.784;9.190;2023-11-19T05:11:38;12.10;99.90
10964;DHT22;5534;48.784;9.190;2023-11-19T05:14:05;12.10;99.90
10964;DHT22;5534;48.784;9.190;2023-11-19T05:16:31;12.00;99.90
10964;DHT22;5534;48.784;9.190;2023-11-19T05:18:57;12.10;99.90
10964;DHT22;5534;48.784;9.190;2023-11-19T05:21:22;12.10;99.90
10964;DHT22;5534;48.784;9.190;2023-11-19T05:23:49;12.10;99.90
10964;DHT22;5534;48.784;9.190;2023-11-19T05:26:21;12.00;99.90
10964;DHT22;5534;48.784;9.190;2023-11-19T05:28:47;12.10;99.90
10964;DHT22;5534;48.784;9.190;2023-11-19T05:31:13;12.10;99.90
10964;DHT22;5534;48.784;9.190;2023-11-19T05:33:39;12.20;99.90
10964;DHT22;5534;48.784;9.190;2023-11-19T05:36:06;12.20;99.90
10964;DHT22;5534;48.784;9.190;2023-11-19T05:38:35;12.20;99.90
10964;DHT22;5534;48.784;9.190;2023-11-19T05:41:04;12.20;99.90
10964;DHT22;5534;48.784;9.190;2023-11-19T05:43:31;12.30;99.90
10964;DHT22;5534;48.784;9.190;2023-11-19T05:45:56;12.20;99.90
10964;DHT22;5534;48.784;9.190;2023-11-19T05:48:22;12.20;99.90
10964;DHT22;5534;48.784;9.190;2023-11-19T05:50:48;12.10;99.90
10964;DHT22;5534;48.784;9.190;2023-11-19T05:53:16;12.10;99.90
10964;DHT22;5534;48.784;9.190;2023-11-19T05:55:41;12.10;99.90
10964;DHT22;5534;48.784;9.190;2023-11-19T05:58:36;12.00;99.90
10964;DHT22;5534;48.784;9.190;2023-11-19T06:01:02;12.00;99.90
10964;DHT22;5534;48.784;9.190;2023-11-19T06:03:30;12.00;99.90
10964;DHT22;5534;48.784;9.190;2023-11-19T06:05:55;12.00;99.90
10964;DHT22;5534;48.784;9.190;2023-11-19T06:08:21;12.00;99.90
10964;DHT22;5534;48.784;9.190;2023-11-19T06:10:47;12.10;99.90
10964;DHT22;5534;48.784;9.190;2023-11-19T06:13:15;12.10;99.90
10964;DHT22;5534;48.784;9.190;2023-11-19T06:15:44;12.10;99.90
10964;DHT22;5534;48.784;9.190;2023-11-19T06:18:10;12.00;99.90
10964;DHT22;5534;48.784;9.190;2023-11-19T06:20:38;12.10;99.90
10964;DHT22;5534;48.784;9.190;2023-11-19T06:23:03;12.00;99.90
10964;DHT22;5534;48.784;9.190;2023-11-19T06:25:29;12.10;99.90
10964;DHT22;5534;48.784;9.190;2023-11-19T06:27:55;12.20;99.90
10964;DHT22;5534;48.784;9.190;2023-11-19T06:30:22;12.40;99.90
10964;DHT22;5534;48.784;9.190;2023-11-19T06:32:47;12.50;99.90
10964;DHT22;5534;48.784;9.190;2023-11-19T06:35:13;12.40;99.90
10964;DHT22;5534;48.784;9.190;2023-11-19T06:37:40;12.30;99.90
10964;DHT22;5534;48.784;9.190;2023-11-19T06:40:06;12.40;99.90
10964;DHT22;5534;48.784;9.190;2023-11-19T06:42:33;12.30;99.90
10964;DHT22;5534;48.784;9.190;2023-11-19T06:44:58;12.30;99.90
10964;DHT22;5534;48.784;9.190;2023-11-19T06:47:28;12.30;99.90
10964;DHT22;5534;48.784;9.190;2023-11-19T06:49:54;12.30;99.90
10964;DHT22;5534;48.784;9.190;2023-11-19T06:52:20;12.20;99.90
10964;DHT22;5534;48.784;9.190;2023-11-19T06:54:46;12.20;99.90
10964;DHT22;5534;48.784;9.190;2023-11-19T06:57:13;12.20;99.90
10964;DHT22;5534;48.784;9.190;2023-11-19T06:59:39;12.20;99.90
10964;DHT22;5534;48.784;9.190;2023-11-19T07:02:04;12.20;99.90
10964;DHT22;5534;48.784;9.190;2023-11-19T07:04:32;12.40;99.90
10964;DHT22;5534;48.784;9.190;2023-11-19T07:06:59;12.30;99.90
10964;DHT22;5534;48.784;9.190;2023-11-19T07:09:25;12.40;99.90
10964;DHT22;5534;48.784;9.190;2023-11-19T07:11:51;12.40;99.90
10964;DHT22;5534;48.784;9.190;2023-11-19T07:14:18;12.50;99.90
10964;DHT22;5534;48.784;9.190;2023-11-19T07:16:45;12.40;99.90
10964;DHT22;5534;48.784;9.190;2023-11-19T07:19:12;12.50;99.90
10964;DHT22;5534;48.784;9.190;2023-11-19T07:21:41;12.40;99.90
10964;DHT22;5534;48.784;9.190;2023-11-19T07:24:12;12.50;99.90
10964;DHT22;5534;48.784;9.190;2023-11-19T07:26:43;12.60;99.90
10964;DHT22;5534;48.784;9.190;2023-11-19T07:29:09;12.60;99.90
10964;DHT22;5534;48.784;9.190;2023-11-19T07:31:35;12.80;99.90
10964;DHT22;5534;48.784;9.190;2023-11-19T07:34:01;12.70;99.90
10964;DHT22;5534;48.784;9.190;2023-11-19T07:36:26;12.70;99.90
10964;DHT22;5534;48.784;9.190;2023-11-19T07:38:52;12.80;99.90
10964;DHT22;5534;48.784;9.190;2023-11-19T07:41:18;12.70;99.90
10964;DHT22;5534;48.784;9.190;2023-11-19T07:43:45;12.80;99.90
10964;DHT22;5534;48.784;9.190;2023-11-19T07:46:16;12.60;99.90
10964;DHT22;5534;48.784;9.190;2023-11-19T07:48:45;12.70;99.90
10964;DHT22;5534;48.784;9.190;2023-11-19T07:51:13;12.80;99.90
10964;DHT22;5534;48.784;9.190;2023-11-19T07:53:40;12.70;99.90
10964;DHT22;5534;48.784;9.190;2023-11-19T07:56:09;12.70;99.90
10964;DHT22;5534;48.784;9.190;2023-11-19T07:58:36;12.80;99.90
10964;DHT22;5534;48.784;9.190;2023-11-19T08:01:02;12.80;99.90
10964;DHT22;5534;48.784;9.190;2023-11-19T08:03:29;12.80;99.90
10964;DHT22;5534;48.784;9.190;2023-11-19T08:05:56;12.80;99.90
10964;DHT22;5534;48.784;9.190;2023-11-19T08:08:22;12.80;99.90
10964;DHT22;5534;48.784;9.190;2023-11-19T08:10:48;12.80;99.90
10964;DHT22;5534;48.784;9.190;2023-11-19T08:13:14;12.80;99.90
10964;DHT22;5534;48.784;9.190;2023-11-19T08:15:40;12.70;99.90
10964;DHT22;5534;48.784;9.190;2023-11-19T08:18:06;12.90;99.90
10964;DHT22;5534;48.784;9.190;2023-11-19T08:20:33;12.80;99.90
10964;DHT22;5534;48.784;9.190;2023-11-19T08:22:59;12.80;99.90
10964;DHT22;5534;48.784;9.190;2023-11-19T08:25:25;12.90;99.90
10964;DHT22;5534;48.784;9.190;2023-11-19T08:27:50;13.00;99.90
10964;DHT22;5534;48.784;9.190;2023-11-19T08:30:16;13.00;99.90
10964;DHT22;5534;48.784;9.190;2023-11-19T08:32:42;13.10;99.90
10964;DHT22;5534;48.784;9.190;2023-11-19T08:35:08;13.30;99.90
10964;DHT22;5534;48.784;9.190;2023-11-19T08:37:34;13.10;99.90
10964;DHT22;5534;48.784;9.190;2023-11-19T08:40:02;13.20;99.90
10964;DHT22;5534;48.784;9.190;2023-11-19T08:42:28;13.40;99.90
10964;DHT22;5534;48.784;9.190;2023-11-19T08:44:55;13.50;99.90
10964;DHT22;5534;48.784;9.190;2023-11-19T08:47:20;13.50;99.90
10964;DHT22;5534;48.784;9.190;2023-11-19T08:49:50;13.60;99.90
10964;DHT22;5534;48.784;9.190;2023-11-19T08:52:17;13.60;99.90
10964;DHT22;5534;48.784;9.190;2023-11-19T08:54:43;13.50;99.90
10964;DHT22;5534;48.784;9.190;2023-11-19T08:57:09;13.40;99.90
10964;DHT22;5534;48.784;9.190;2023-11-19T08:59:35;13.40;99.90
10964;DHT22;5534;48.784;9.190;2023-11-19T09:02:01;13.40;99.90
10964;DHT22;5534;48.784;9.190;2023-11-19T09:04:27;13.30;99.90
10964;DHT22;5534;48.784;9.190;2023-11-19T09:06:53;13.40;99.90
10964;DHT22;5534;48.784;9.190;2023-11-19T09:09:19;13.60;99.90
10964;DHT22;5534;48.784;9.190;2023-11-19T09:11:44;13.60;99.90
10964;DHT22;5534;48.784;9.190;2023-11-19T09:14:10;13.70;99.90
10964;DHT22;5534;48.784;9.190;2023-11-19T09:16:36;13.60;99.90
10964;DHT22;5534;48.784;9.190;2023-11-19T09:19:01;13.70;99.90
10964;DHT22;5534;48.784;9.190;2023-11-19T09:21:29;13.90;99.90
10964;DHT22;5534;48.784;9.190;2023-11-19T09:23:57;13.90;99.90
10964;DHT22;5534;48.784;9.190;2023-11-19T09:26:23;13.90;99.90
10964;DHT22;5534;48.784;9.190;2023-11-19T09:28:49;13.70;99.90
10964;DHT22;5534;48.784;9.190;2023-11-19T09:31:16;13.80;99.90
10964;DHT22;5534;48.784;9.190;2023-11-19T09:33:42;13.80;99.90
10964;DHT22;5534;48.784;9.190;2023-11-19T09:36:08;13.90;99.90
10964;DHT22;5534;48.784;9.190;2023-11-19T09:38:34;13.90;99.90
10964;DHT22;5534;48.784;9.190;2023-11-19T09:41:05;14.00;99.90
10964;DHT22;5534;48.784;9.190;2023-11-19T09:43:35;14.10;99.90
10964;DHT22;5534;48.784;9.190;2023-11-19T09:46:05;14.10;99.90
10964;DHT22;5534;48.784;9.190;2023-11-19T09:48:35;14.10;99.90
10964;DHT22;5534;48.784;9.190;2023-11-19T09:51:02;14.20;99.90
10964;DHT22;5534;48.784;9.190;2023-11-19T09:53:29;14.10;99.90
10964;DHT22;5534;48.784;9.190;2023-11-19T09:55:55;14.20;99.90
10964;DHT22;5534;48.784;9.190;2023-11-19T09:58:21;14.30;99.90
10964;DHT22;5534;48.784;9.190;2023-11-19T10:00:49;14.40;99.90
10964;DHT22;5534;48.784;9.190;2023-11-19T10:03:15;14.40;99.90
10964;DHT22;5534;48.784;9.190;2023-11-19T10:05:41;14.40;99.90
10964;DHT22;5534;48.784;9.190;2023-11-19T10:08:07;14.40;99.90
10964;DHT22;5534;48.784;9.190;2023-11-19T10:10:39;14.60;99.90
10964;DHT22;5534;48.784;9.190;2023-11-19T10:13:05;14.70;99.90
10964;DHT22;5534;48.784;9.190;2023-11-19T10:15:36;14.80;99.90
10964;DHT22;5534;48.784;9.190;2023-11-19T10:18:03;14.70;99.90
10964;DHT22;5534;48.784;9.190;2023-11-19T10:20:40;14.70;99.90
10964;DHT22;5534;48.784;9.190;2023-11-19T10:23:06;14.70;99.90
10964;DHT22;5534;48.784;9.190;2023-11-19T10:25:33;14.90;99.90
10964;DHT22;5534;48.784;9.190;2023-11-19T10:27:59;14.80;99.90
10964;DHT22;5534;48.784;9.190;2023-11-19T10:30:30;14.90;99.90
10964;DHT22;5534;48.784;9.190;2023-11-19T10:33:09;14.90;99.90
10964;DHT22;5534;48.784;9.190;2023-11-19T10:35:50;14.90;99.90
10964;DHT22;5534;48.784;9.190;2023-11-19T10:38:17;15.00;99.90
10964;DHT22;5534;48.784;9.190;2023-11-19T10:40:43;14.90;99.90
10964;DHT22;5534;48.784;9.190;2023-11-19T10:43:09;15.00;99.90
10964;DHT22;5534;48.784;9.190;2023-11-19T10:45:39;14.90;99.90
10964;DHT22;5534;48.784;9.190;2023-11-19T10:48:06;14.80;99.90
10964;DHT22;5534;48.784;9.190;2023-11-19T10:50:36;14.90;99.90
10964;DHT22;5534;48.784;9.190;2023-11-19T10:53:04;14.90;99.90
10964;DHT22;5534;48.784;9.190;2023-11-19T10:55:31;15.10;99.90
10964;DHT22;5534;48.784;9.190;2023-11-19T10:58:02;15.00;99.90
10964;DHT22;5534;48.784;9.190;2023-11-19T11:00:44;15.00;99.90
10964;DHT22;5534;48.784;9.190;2023-11-19T11:03:19;15.10;99.90
10964;DHT22;5534;48.784;9.190;2023-11-19T11:05:51;15.10;99.90
10964;DHT22;5534;48.784;9.190;2023-11-19T11:08:18;15.10;99.90
10964;DHT22;5534;48.784;9.190;2023-11-19T11:13:11;15.30;99.90
10964;DHT22;5534;48.784;9.190;2023-11-19T11:15:39;15.30;99.90
10964;DHT22;5534;48.784;9.190;2023-11-19T11:18:08;15.40;99.90
10964;DHT22;5534;48.784;9.190;2023-11-19T11:20:35;15.30;99.90
10964;DHT22;5534;48.784;9.190;2023-11-19T11:26:09;15.20;99.90
10964;DHT22;5534;48.784;9.190;2023-11-19T11:34:29;15.00;99.90
10964;DHT22;5534;48.784;9.190;2023-11-19T11:37:21;15.10;99.90
10964;DHT22;5534;48.784;9.190;2023-11-19T11:39:51;15.30;99.90
10964;DHT22;5534;48.784;9.190;2023-11-19T11:42:30;15.30;99.90
10964;DHT22;5534;48.784;9.190;2023-11-19T11:45:13;15.20;99.90
10964;DHT22;5534;48.784;9.190;2023-11-19T11:50:18;15.00;99.90
10964;DHT22;5534;48.784;9.190;2023-11-19T11:58:12;15.30;99.90
10964;DHT22;5534;48.784;9.190;2023-11-19T12:00:41;15.30;99.90
10964;DHT22;5534;48.784;9.190;2023-11-19T12:03:11;15.40;99.90
10964;DHT22;5534;48.784;9.190;2023-11-19T12:05:45;15.60;99.90
10964;DHT22;5534;48.784;9.190;2023-11-19T12:08:17;15.80;99.90
10964;DHT22;5534;48.784;9.190;2023-11-19T12:13:13;15.70;99.90
10964;DHT22;5534;48.784;9.190;2023-11-19T12:18:29;15.90;99.90
10964;DHT22;5534;48.784;9.190;2023-11-19T12:20:56;16.00;99.90
10964;DHT22;5534;48.784;9.190;2023-11-19T12:23:22;16.10;99.90
10964;DHT22;5534;48.784;9.190;2023-11-19T12:25:49;16.10;99.90
10964;DHT22;5534;48.784;9.190;2023-11-19T12:28:16;16.10;99.90
10964;DHT22;5534;48.784;9.190;2023-11-19T12:30:43;16.10;99.90
10964;DHT22;5534;48.784;9.190;2023-11-19T12:33:13;16.20;99.90
10964;DHT22;5534;48.784;9.190;2023-11-19T12:35:41;16.30;99.90
10964;DHT22;5534;48.784;9.190;2023-11-19T12:38:08;16.50;99.90
10964;DHT22;5534;48.784;9.190;2023-11-19T12:40:33;16.50;99.90
10964;DHT22;5534;48.784;9.190;2023-11-19T12:43:00;16.50;99.90
10964;DHT22;5534;48.784;9.190;2023-11-19T12:45:35;16.50;99.90
10964;DHT22;5534;48.784;9.190;2023-11-19T12:48:04;16.30;99.90
10964;DHT22;5534;48.784;9.190;2023-11-19T12:50:53;16.20;99.90
10964;DHT22;5534;48.784;9.190;2023-11-19T12:53:20;16.10;99.90
10964;DHT22;5534;48.784;9.190;2023-11-19T12:55:46;16.10;99.90
10964;DHT22;5534;48.784;9.190;2023-11-19T12:58:48;16.10;99.90
10964;DHT22;5534;48.784;9.190;2023-11-19T13:01:18;16.50;99.90
10964;DHT22;5534;48.784;9.190;2023-11-19T13:03:45;16.50;99.90
10964;DHT22;5534;48.784;9.190;2023-11-19T13:06:13;16.40;99.90
10964;DHT22;5534;48.784;9.190;2023-11-19T13:08:50;16.60;99.90
10964;DHT22;5534;48.784;9.190;2023-11-19T13:11:35;16.50;99.90
10964;DHT22;5534;48.784;9.190;2023-11-19T13:14:06;16.50;99.90
10964;DHT22;5534;48.784;9.190;2023-11-19T13:16:37;16.40;99.90
10964;DHT22;5534;48.784;9.190;2023-11-19T13:19:04;16.40;99.90
10964;DHT22;5534;48.784;9.190;2023-11-19T13:21:31;16.40;99.90
10964;DHT22;5534;48.784;9.190;2023-11-19T13:23:57;16.40;99.90
10964;DHT22;5534;48.784;9.190;2023-11-19T13:26:23;16.40;99.90
10964;DHT22;5534;48.784;9.190;2023-11-19T13:28:48;16.40;99.90
10964;DHT22;5534;48.784;9.190;2023-11-19T13:31:14;16.20;99.90
10964;DHT22;5534;48.784;9.190;2023-11-19T13:33:41;16.00;99.90
10964;DHT22;5534;48.784;9.190;2023-11-19T13:36:07;16.10;99.90
10964;DHT22;5534;48.784;9.190;2023-11-19T13:38:36;16.20;99.90
10964;DHT22;5534;48.784;9.190;2023-11-19T13:41:05;16.20;99.90
10964;DHT22;5534;48.784;9.190;2023-11-19T13:43:32;16.20;99.90
10964;DHT22;5534;48.784;9.190;2023-11-19T13:45:58;16.20;99.90
10964;DHT22;5534;48.784;9.190;2023-11-19T13:48:25;16.20;99.90
10964;DHT22;5534;48.784;9.190;2023-11-19T13:50:52;16.10;99.90
10964;DHT22;5534;48.784;9.190;2023-11-19T13:53:18;16.10;99.90
10964;DHT22;5534;48.784;9.190;2023-11-19T13:55:44;16.20;99.90
10964;DHT22;5534;48.784;9.190;2023-11-19T13:58:10;16.00;99.90
10964;DHT22;5534;48.784;9.190;2023-11-19T14:00:39;15.90;99.90
10964;DHT22;5534;48.784;9.190;2023-11-19T14:03:07;16.00;99.90
10964;DHT22;5534;48.784;9.190;2023-11-19T14:05:33;15.90;99.90
10964;DHT22;5534;48.784;9.190;2023-11-19T14:07:59;15.90;99.90
10964;DHT22;5534;48.784;9.190;2023-11-19T14:10:25;15.80;99.90
10964;DHT22;5534;48.784;9.190;2023-11-19T14:12:50;15.70;99.90
10964;DHT22;5534;48.784;9.190;2023-11-19T14:15:16;15.70;99.90
10964;DHT22;5534;48.784;9.190;2023-11-19T14:17:45;15.60;99.90
10964;DHT22;5534;48.784;9.190;2023-11-19T14:20:11;15.60;99.90
10964;DHT22;5534;48.784;9.190;2023-11-19T14:22:44;15.50;99.90
10964;DHT22;5534;48.784;9.190;2023-11-19T14:25:10;15.50;99.90
10964;DHT22;5534;48.784;9.190;2023-11-19T14:27:37;15.50;99.90
10964;DHT22;5534;48.784;9.190;2023-11-19T14:30:05;15.50;99.90
10964;DHT22;5534;48.784;9.190;2023-11-19T14:32:31;15.50;99.90
10964;DHT22;5534;48.784;9.190;2023-11-19T14:34:57;15.50;99.90
10964;DHT22;5534;48.784;9.190;2023-11-19T14:37:23;15.30;99.90
10964;DHT22;5534;48.784;9.190;2023-11-19T14:39:48;15.40;99.90
10964;DHT22;5534;48.784;9.190;2023-11-19T14:42:17;15.30;99.90
10964;DHT22;5534;48.784;9.190;2023-11-19T14:44:43;15.40;99.90
10964;DHT22;5534;48.784;9.190;2023-11-19T14:47:08;15.30;99.90
10964;DHT22;5534;48.784;9.190;2023-11-19T14:49:35;15.30;99.90
10964;DHT22;5534;48.784;9.190;2023-11-19T14:52:01;15.30;99.90
10964;DHT22;5534;48.784;9.190;2023-11-19T14:54:26;15.20;99.90
10964;DHT22;5534;48.784;9.190;2023-11-19T14:56:52;15.20;99.90
10964;DHT22;5534;48.784;9.190;2023-11-19T14:59:24;15.20;99.90
10964;DHT22;5534;48.784;9.190;2023-11-19T15:01:50;15.30;99.90
10964;DHT22;5534;48.784;9.190;2023-11-19T15:04:16;15.20;99.90
10964;DHT22;5534;48.784;9.190;2023-11-19T15:06:42;15.10;99.90
10964;DHT22;5534;48.784;9.190;2023-11-19T15:09:08;15.10;99.90
10964;DHT22;5534;48.784;9.190;2023-11-19T15:11:35;15.00;99.90
10964;DHT22;5534;48.784;9.190;2023-11-19T15:14:01;14.90;99.90
10964;DHT22;5534;48.784;9.190;2023-11-19T15:16:27;15.10;99.90
10964;DHT22;5534;48.784;9.190;2023-11-19T15:18:59;15.00;99.90
10964;DHT22;5534;48.784;9.190;2023-11-19T15:21:29;15.00;99.90
10964;DHT22;5534;48.784;9.190;2023-11-19T15:23:57;14.90;99.90
10964;DHT22;5534;48.784;9.190;2023-11-19T15:26:23;14.90;99.90
10964;DHT22;5534;48.784;9.190;2023-11-19T15:28:49;14.80;99.90
10964;DHT22;5534;48.784;9.190;2023-11-19T15:31:15;14.80;99.90
10964;DHT22;5534;48.784;9.190;2023-11-19T15:33:42;14.80;99.90
10964;DHT22;5534;48.784;9.190;2023-11-19T15:36:08;14.70;99.90
10964;DHT22;5534;48.784;9.190;2023-11-19T15:38:35;14.70;99.90
10964;DHT22;5534;48.784;9.190;2023-11-19T15:41:00;14.70;99.90
10964;DHT22;5534;48.784;9.190;2023-11-19T15:43:28;14.70;99.90
10964;DHT22;5534;48.784;9.190;2023-11-19T15:45:55;14.70;99.90
10964;DHT22;5534;48.784;9.190;2023-11-19T15:48:20;14.70;99.90
10964;DHT22;5534;48.784;9.190;2023-11-19T15:50:46;14.70;99.90
10964;DHT22;5534;48.784;9.190;2023-11-19T15:53:12;14.60;99.90
10964;DHT22;5534;48.784;9.190;2023-11-19T15:55:37;14.50;99.90
10964;DHT22;5534;48.784;9.190;2023-11-19T15:58:04;14.30;99.90
10964;DHT22;5534;48.784;9.190;2023-11-19T16:00:29;14.50;99.90
10964;DHT22;5534;48.784;9.190;2023-11-19T16:02:55;14.40;99.90
10964;DHT22;5534;48.784;9.190;2023-11-19T16:05:22;14.30;99.90
10964;DHT22;5534;48.784;9.190;2023-11-19T16:07:49;14.40;99.90
10964;DHT22;5534;48.784;9.190;2023-11-19T16:10:16;14.40;99.90
10964;DHT22;5534;48.784;9.190;2023-11-19T16:12:46;14.40;99.90